Time;durP1;ratioP1;P1;durP2;ratioP2;P2;SDS_P1;SDS_P2;PMS_P1;PMS_P2;Temp;Humidity;BMP_temperature;BMP_pressure;BME280_temperature;BME280_humidity;BME280_pressure;Samples;Min_cycle;Max_cycle;Signal;HPM_P1;HPM_P2
2021/01/06 00:00:29;;;;;;;19.60;11.57;;;17.90;44.10;;;;;;5089779;28;20074;-46
2021/01/06 00:02:55;;;;;;;17.45;9.35;;;17.90;44.10;;;;;;5088236;28;20131;-46
2021/01/06 00:05:25;;;;;;;14.82;10.93;;;17.90;44.10;;;;;;5093704;28;20047;-51
2021/01/06 00:07:52;;;;;;;17.80;10.02;;;17.90;44.10;;;;;;5089675;28;20059;-51
2021/01/06 00:10:22;;;;;;;17.40;11.23;;;17.90;44.10;;;;;;5091682;28;20048;-49
2021/01/06 00:12:49;;;;;;;20.90;10.23;;;17.90;44.10;;;;;;5090260;28;20052;-52
2021/01/06 00:15:16;;;;;;;17.20;10.65;;;17.90;44.10;;;;;;5085392;28;20047;-50
2021/01/06 00:17:44;;;;;;;17.90;11.40;;;17.90;44.10;;;;;;5082523;28;20494;-54
2021/01/06 00:20:13;;;;;;;17.38;10.27;;;17.90;44.10;;;;;;5082947;28;20154;-49
2021/01/06 00:22:40;;;;;;;18.17;10.35;;;17.90;44.10;;;;;;5087734;28;22520;-50
2021/01/06 00:25:08;;;;;;;16.83;9.93;;;17.90;44.10;;;;;;5090919;28;20476;-50
2021/01/06 00:27:35;;;;;;;15.85;8.70;;;17.90;44.10;;;;;;5089566;28;20036;-49
2021/01/06 00:30:01;;;;;;;16.52;10.60;;;17.90;44.10;;;;;;5089316;28;20106;-53
2021/01/06 00:32:28;;;;;;;17.83;9.68;;;17.90;44.10;;;;;;5088988;28;20500;-52
2021/01/06 00:34:55;;;;;;;14.23;9.55;;;17.90;44.10;;;;;;5083044;28;20066;-46
2021/01/06 00:37:22;;;;;;;16.55;10.00;;;17.90;44.10;;;;;;5086172;28;20511;-51
2021/01/06 00:39:49;;;;;;;17.35;11.30;;;17.90;44.10;;;;;;5089782;28;20456;-46
2021/01/06 00:42:15;;;;;;;16.25;10.23;;;17.90;44.10;;;;;;5089468;28;20060;-48
2021/01/06 00:44:42;;;;;;;17.10;10.70;;;17.90;44.10;;;;;;5087547;28;20052;-49
2021/01/06 00:47:08;;;;;;;13.45;8.73;;;17.90;44.10;;;;;;5088170;28;20056;-48
2021/01/06 00:49:35;;;;;;;15.52;9.65;;;17.90;44.20;;;;;;5089054;28;20116;-47
2021/01/06 00:52:02;;;;;;;22.13;10.30;;;17.90;44.70;;;;;;5089841;28;20060;-51
2021/01/06 00:54:32;;;;;;;16.15;9.82;;;17.90;44.10;;;;;;5088782;28;20086;-50
2021/01/06 00:56:59;;;;;;;15.68;10.48;;;17.90;44.20;;;;;;5087622;28;20415;-50
2021/01/06 00:59:25;;;;;;;17.00;9.57;;;17.90;44.10;;;;;;5088892;28;20131;-50
2021/01/06 01:01:52;;;;;;;16.20;10.32;;;17.90;44.20;;;;;;5088447;28;20068;-47
2021/01/06 01:04:21;;;;;;;17.20;10.55;;;17.90;44.20;;;;;;5088998;28;20036;-55
2021/01/06 01:06:47;;;;;;;16.05;9.15;;;17.90;44.20;;;;;;5088919;28;20476;-47
2021/01/06 01:09:15;;;;;;;17.67;9.30;;;17.90;44.20;;;;;;5088563;28;20127;-47
2021/01/06 01:11:43;;;;;;;13.23;8.98;;;17.90;44.10;;;;;;5088193;28;20040;-51
2021/01/06 01:14:10;;;;;;;16.75;9.20;;;17.90;44.10;;;;;;5088514;28;20511;-49
2021/01/06 01:16:41;;;;;;;18.67;9.80;;;17.90;44.10;;;;;;5088099;28;20054;-52
2021/01/06 01:19:08;;;;;;;15.60;9.55;;;17.90;44.10;;;;;;5089032;28;20203;-48
2021/01/06 01:21:34;;;;;;;14.85;8.93;;;17.90;44.10;;;;;;5086614;28;20039;-47
2021/01/06 01:24:01;;;;;;;13.93;8.02;;;17.90;44.10;;;;;;5082150;28;20052;-46
2021/01/06 01:26:29;;;;;;;13.80;8.63;;;17.90;44.10;;;;;;5088193;28;20040;-48
2021/01/06 01:28:55;;;;;;;17.80;9.82;;;17.90;44.10;;;;;;5088444;28;20139;-50
2021/01/06 01:31:30;;;;;;;15.52;8.55;;;17.90;44.10;;;;;;5087470;28;20074;-51
2021/01/06 01:33:57;;;;;;;16.55;9.27;;;17.90;44.10;;;;;;5087729;28;20059;-54
2021/01/06 01:36:24;;;;;;;14.85;8.80;;;17.90;44.10;;;;;;5086390;28;20048;-51
2021/01/06 01:38:50;;;;;;;12.55;9.00;;;17.90;44.10;;;;;;5087911;28;20033;-52
2021/01/06 01:41:23;;;;;;;12.50;8.60;;;17.90;44.10;;;;;;5088116;28;20750;-51
2021/01/06 01:43:51;;;;;;;16.05;8.77;;;17.90;44.10;;;;;;5088208;28;20070;-53
2021/01/06 01:46:54;;;;;;;13.85;9.43;;;17.90;44.10;;;;;;5085096;28;20056;-50
2021/01/06 01:49:26;;;;;;;18.17;9.98;;;17.90;44.10;;;;;;5088675;28;20044;-51
2021/01/06 01:52:01;;;;;;;17.98;9.70;;;17.90;44.60;;;;;;5087878;28;20404;-46
2021/01/06 01:54:31;;;;;;;15.38;10.00;;;17.90;44.20;;;;;;5085156;28;20513;-49
2021/01/06 01:57:02;;;;;;;13.35;9.55;;;17.80;44.20;;;;;;5087772;28;20535;-50
2021/01/06 01:59:36;;;;;;;15.50;8.70;;;17.90;44.20;;;;;;5085600;28;20044;-46
2021/01/06 02:02:07;;;;;;;14.25;9.15;;;17.90;44.20;;;;;;5087817;28;20610;-50
2021/01/06 02:04:39;;;;;;;13.63;8.70;;;17.80;44.10;;;;;;5086962;28;20048;-47
2021/01/06 02:07:10;;;;;;;14.85;8.23;;;17.90;44.20;;;;;;5087143;28;20063;-51
2021/01/06 02:09:47;;;;;;;13.85;8.50;;;17.90;44.20;;;;;;5086163;28;20151;-48
2021/01/06 02:12:17;;;;;;;13.80;8.73;;;17.90;44.20;;;;;;5087872;28;20123;-51
2021/01/06 02:14:56;;;;;;;13.02;8.63;;;17.80;44.10;;;;;;5087309;28;20040;-51
2021/01/06 02:17:23;;;;;;;14.43;8.68;;;17.90;44.10;;;;;;5081152;28;20165;-48
2021/01/06 02:19:49;;;;;;;14.57;9.25;;;17.80;44.10;;;;;;5082284;28;20036;-48
2021/01/06 02:22:19;;;;;;;13.13;8.00;;;17.90;44.20;;;;;;5088867;28;20040;-51
2021/01/06 02:24:48;;;;;;;13.25;8.57;;;17.90;44.10;;;;;;5087758;28;20048;-49
2021/01/06 02:27:17;;;;;;;15.38;8.88;;;17.80;44.10;;;;;;5088244;28;20036;-53
2021/01/06 02:29:44;;;;;;;12.52;7.82;;;17.80;44.10;;;;;;5086258;28;20071;-49
2021/01/06 02:32:12;;;;;;;14.40;9.20;;;17.80;44.10;;;;;;5087742;28;20163;-50
2021/01/06 02:34:40;;;;;;;12.82;7.78;;;17.90;44.20;;;;;;5087582;28;20047;-49
2021/01/06 02:37:07;;;;;;;11.38;8.40;;;17.90;44.10;;;;;;5088472;28;20504;-50
2021/01/06 02:39:35;;;;;;;11.68;7.65;;;17.90;44.10;;;;;;5087380;28;20036;-55
2021/01/06 02:42:03;;;;;;;12.95;8.48;;;17.90;44.10;;;;;;5087396;28;20063;-51
2021/01/06 02:44:30;;;;;;;14.50;8.05;;;17.90;44.10;;;;;;5087085;28;20067;-50
2021/01/06 02:46:57;;;;;;;14.30;7.63;;;17.90;44.10;;;;;;5086187;28;20038;-54
2021/01/06 02:49:24;;;;;;;15.30;8.63;;;17.90;44.10;;;;;;5087821;28;20052;-50
2021/01/06 02:51:55;;;;;;;11.98;7.50;;;17.90;44.10;;;;;;5085922;28;20618;-47
2021/01/06 02:54:28;;;;;;;11.85;8.70;;;17.90;44.20;;;;;;5087060;28;20152;-46
2021/01/06 02:56:58;;;;;;;10.48;7.53;;;17.90;44.10;;;;;;5086769;28;20052;-46
2021/01/06 02:59:31;;;;;;;14.70;7.95;;;17.90;44.10;;;;;;5085103;28;20067;-46
2021/01/06 03:02:00;;;;;;;11.07;7.30;;;17.80;44.10;;;;;;5087387;28;20059;-46
2021/01/06 03:04:29;;;;;;;12.52;7.68;;;17.80;44.10;;;;;;5087788;28;20056;-50
2021/01/06 03:07:01;;;;;;;13.02;7.32;;;17.80;44.10;;;;;;5087361;28;20078;-46
2021/01/06 03:09:32;;;;;;;14.02;8.10;;;17.90;44.10;;;;;;5084765;28;20041;-51
2021/01/06 03:12:05;;;;;;;12.50;8.75;;;17.90;44.20;;;;;;5089203;28;20048;-46
2021/01/06 03:14:34;;;;;;;11.80;7.75;;;17.90;44.10;;;;;;5089546;28;20051;-47
2021/01/06 03:17:03;;;;;;;13.60;7.43;;;17.90;44.20;;;;;;5090839;28;20462;-48
2021/01/06 03:19:34;;;;;;;13.18;7.63;;;17.80;44.10;;;;;;5088658;28;20044;-46
2021/01/06 03:22:04;;;;;;;12.43;6.88;;;17.90;44.10;;;;;;5091765;28;20052;-49
2021/01/06 03:24:34;;;;;;;14.10;7.82;;;17.90;44.20;;;;;;5090706;28;20051;-49
2021/01/06 03:27:02;;;;;;;11.68;7.47;;;17.90;44.10;;;;;;5090215;28;20136;-46
2021/01/06 03:29:31;;;;;;;12.68;6.95;;;17.90;44.10;;;;;;5090715;28;20072;-46
2021/01/06 03:32:01;;;;;;;11.00;7.88;;;17.90;44.20;;;;;;5090683;28;20052;-46
2021/01/06 03:34:34;;;;;;;10.93;7.05;;;17.80;44.10;;;;;;5091184;28;20040;-49
2021/01/06 03:37:07;;;;;;;12.07;6.80;;;17.90;44.10;;;;;;5091557;28;20052;-49
2021/01/06 03:39:40;;;;;;;11.77;7.55;;;17.90;44.40;;;;;;5090414;28;20431;-46
2021/01/06 03:42:08;;;;;;;12.27;7.70;;;17.90;44.10;;;;;;5089933;28;20052;-46
2021/01/06 03:44:35;;;;;;;9.95;6.68;;;17.90;44.10;;;;;;5090101;28;20036;-47
2021/01/06 03:47:07;;;;;;;11.07;8.45;;;17.80;44.10;;;;;;5090329;28;20048;-46
2021/01/06 03:49:47;;;;;;;11.23;7.18;;;17.90;44.10;;;;;;5090397;28;20101;-46
2021/01/06 03:52:24;;;;;;;9.98;7.55;;;17.90;44.10;;;;;;5090326;28;20040;-49
2021/01/06 03:54:59;;;;;;;10.40;7.32;;;17.90;44.10;;;;;;5090811;28;20071;-52
2021/01/06 03:57:28;;;;;;;11.52;7.20;;;17.80;44.10;;;;;;5089957;28;20045;-52
2021/01/06 03:59:57;;;;;;;10.00;6.65;;;17.90;44.10;;;;;;5090094;28;20434;-51
2021/01/06 04:02:28;;;;;;;9.95;6.80;;;17.80;44.10;;;;;;5090255;28;20518;-50
2021/01/06 04:05:02;;;;;;;16.88;7.13;;;17.80;44.10;;;;;;5087166;28;20063;-47
2021/01/06 04:07:34;;;;;;;10.88;7.15;;;17.80;44.10;;;;;;5087826;28;20131;-47
2021/01/06 04:10:05;;;;;;;12.85;6.90;;;17.90;44.10;;;;;;5090939;28;20040;-51
2021/01/06 04:12:32;;;;;;;9.18;7.03;;;17.80;44.10;;;;;;5089596;28;20063;-52
2021/01/06 04:14:59;;;;;;;12.27;7.40;;;17.90;44.10;;;;;;5089675;28;20028;-50
2021/01/06 04:17:28;;;;;;;10.10;6.25;;;17.80;44.10;;;;;;5089446;28;20071;-47
2021/01/06 04:19:57;;;;;;;11.20;7.07;;;17.80;44.10;;;;;;5088083;28;20064;-46
2021/01/06 04:22:38;;;;;;;9.98;6.30;;;17.90;44.10;;;;;;5089818;28;20055;-47
2021/01/06 04:25:13;;;;;;;11.85;6.63;;;17.90;44.10;;;;;;5089179;28;20504;-50
2021/01/06 04:27:41;;;;;;;10.50;7.47;;;17.80;44.10;;;;;;5089204;28;20057;-49
2021/01/06 04:30:11;;;;;;;11.23;7.07;;;17.80;44.10;;;;;;5089188;28;20404;-50
2021/01/06 04:32:37;;;;;;;12.02;7.22;;;17.90;44.10;;;;;;5089082;28;20511;-52
2021/01/06 04:35:08;;;;;;;10.38;6.38;;;17.80;44.10;;;;;;5089266;28;20065;-49
2021/01/06 04:37:34;;;;;;;11.02;7.40;;;17.80;44.10;;;;;;5089241;28;20044;-50
2021/01/06 04:40:01;;;;;;;10.15;6.75;;;17.80;44.10;;;;;;5090208;28;20396;-47
2021/01/06 04:42:28;;;;;;;10.27;6.15;;;17.90;44.10;;;;;;5089060;28;20043;-46
2021/01/06 04:45:04;;;;;;;9.23;6.63;;;17.90;44.10;;;;;;5089253;28;20093;-47
2021/01/06 04:48:03;;;;;;;9.82;6.30;;;17.90;44.10;;;;;;5088995;28;20047;-49
2021/01/06 04:50:52;;;;;;;7.95;6.13;;;17.80;44.00;;;;;;5004676;28;20049;-49
2021/01/06 04:53:28;;;;;;;9.00;6.30;;;17.80;44.10;;;;;;5026078;28;20052;-47
2021/01/06 04:56:03;;;;;;;11.63;6.50;;;17.80;44.00;;;;;;5025459;28;20132;-52
2021/01/06 04:58:40;;;;;;;8.90;6.70;;;17.80;44.00;;;;;;5026709;28;20523;-52
2021/01/06 05:01:29;;;;;;;10.55;7.43;;;17.80;44.10;;;;;;5026216;28;20052;-48
2021/01/06 05:04:11;;;;;;;9.32;6.05;;;17.90;44.10;;;;;;5024873;28;20468;-48
2021/01/06 05:07:02;;;;;;;11.75;6.78;;;17.90;44.10;;;;;;5025628;28;20068;-51
2021/01/06 05:09:34;;;;;;;12.82;6.20;;;17.80;44.10;;;;;;5020764;28;20103;-49
2021/01/06 05:12:12;;;;;;;7.20;5.30;;;17.80;44.10;;;;;;5025703;28;20048;-48
2021/01/06 05:14:46;;;;;;;12.30;6.47;;;17.80;44.10;;;;;;5025866;28;20053;-49
2021/01/06 05:17:14;;;;;;;11.35;6.72;;;17.80;44.10;;;;;;5025878;28;20050;-49
2021/01/06 05:19:43;;;;;;;12.60;6.13;;;17.80;44.10;;;;;;5025832;28;20056;-50
2021/01/06 05:22:12;;;;;;;7.60;6.10;;;17.80;44.10;;;;;;5026623;28;20049;-47
2021/01/06 05:24:41;;;;;;;7.90;6.18;;;17.80;44.00;;;;;;5025474;28;20053;-48
2021/01/06 05:27:21;;;;;;;13.10;6.93;;;17.90;44.10;;;;;;5049410;28;20381;-50
2021/01/06 05:29:50;;;;;;;9.32;5.25;;;17.90;44.10;;;;;;5083052;28;20059;-47
2021/01/06 05:32:21;;;;;;;9.45;6.60;;;17.80;44.10;;;;;;5088423;28;20106;-47
2021/01/06 05:34:51;;;;;;;11.23;6.47;;;17.80;44.10;;;;;;5087574;28;20048;-51
2021/01/06 05:37:20;;;;;;;10.65;6.93;;;17.80;44.00;;;;;;5089198;28;20551;-48
2021/01/06 05:39:47;;;;;;;8.98;6.75;;;17.80;44.10;;;;;;5088335;28;20068;-46
2021/01/06 05:42:21;;;;;;;9.07;7.00;;;17.80;44.00;;;;;;5085887;28;20040;-47
2021/01/06 05:44:54;;;;;;;12.90;7.18;;;17.80;44.00;;;;;;5087954;28;20059;-48
2021/01/06 05:47:28;;;;;;;13.20;7.25;;;17.90;44.10;;;;;;5088152;28;20043;-46
2021/01/06 05:50:00;;;;;;;9.10;5.45;;;17.80;44.10;;;;;;5085673;28;20081;-47
2021/01/06 05:52:30;;;;;;;10.25;7.47;;;17.80;44.00;;;;;;5087923;28;20048;-48
2021/01/06 05:54:58;;;;;;;10.48;6.78;;;17.80;44.00;;;;;;5089067;28;20866;-49
2021/01/06 05:57:39;;;;;;;10.95;6.32;;;17.80;44.00;;;;;;5087563;28;20048;-50
2021/01/06 06:00:48;;;;;;;11.38;7.00;;;17.90;44.00;;;;;;5083308;28;20213;-51
2021/01/06 06:03:43;;;;;;;12.70;7.43;;;17.90;44.00;;;;;;5083062;28;20051;-47
2021/01/06 06:06:35;;;;;;;13.10;6.30;;;17.80;44.10;;;;;;5004432;28;20050;-48
2021/01/06 06:09:05;;;;;;;9.90;5.82;;;17.80;44.10;;;;;;4999685;28;20457;-47
2021/01/06 06:11:54;;;;;;;9.20;6.68;;;17.80;44.10;;;;;;5004990;28;20050;-49
2021/01/06 06:15:00;;;;;;;8.95;6.78;;;17.80;44.10;;;;;;5005451;28;20045;-48
2021/01/06 06:17:33;;;;;;;9.95;6.60;;;17.80;44.10;;;;;;5001714;28;20045;-55
2021/01/06 06:20:35;;;;;;;9.40;5.35;;;17.80;44.10;;;;;;5005143;28;20042;-52
2021/01/06 06:23:19;;;;;;;9.80;5.68;;;17.80;44.10;;;;;;4999610;28;20104;-52
2021/01/06 06:25:59;;;;;;;11.75;6.80;;;17.80;44.10;;;;;;5005283;28;20054;-53
2021/01/06 06:28:30;;;;;;;8.55;5.85;;;17.80;44.10;;;;;;5005158;28;20058;-49
2021/01/06 06:30:59;;;;;;;10.55;6.13;;;17.80;44.10;;;;;;5006219;28;20057;-50
2021/01/06 06:33:29;;;;;;;9.00;5.47;;;17.80;44.10;;;;;;5005213;28;20511;-52
2021/01/06 06:35:59;;;;;;;8.80;6.70;;;17.80;44.10;;;;;;4998309;28;20054;-50
2021/01/06 06:38:39;;;;;;;8.68;6.25;;;17.80;44.00;;;;;;4998778;28;20045;-52
2021/01/06 06:41:08;;;;;;;8.77;5.72;;;17.80;44.00;;;;;;5005152;28;20057;-51
2021/01/06 06:43:39;;;;;;;9.90;6.95;;;17.80;44.00;;;;;;5060426;28;20056;-53
2021/01/06 06:46:17;;;;;;;11.95;6.82;;;17.80;43.90;;;;;;5090418;28;20109;-46
2021/01/06 06:48:59;;;;;;;11.57;6.80;;;17.80;43.90;;;;;;5091254;28;20094;-50
2021/01/06 06:51:32;;;;;;;8.57;6.20;;;17.80;43.80;;;;;;5091209;28;20052;-47
2021/01/06 06:54:06;;;;;;;8.65;6.05;;;17.80;43.90;;;;;;5084872;28;20047;-51
2021/01/06 06:56:41;;;;;;;9.02;5.53;;;17.80;43.80;;;;;;5090124;28;20597;-51
2021/01/06 06:59:12;;;;;;;9.85;6.53;;;17.80;43.80;;;;;;5091333;28;20044;-49
2021/01/06 07:01:42;;;;;;;9.13;6.18;;;17.80;43.80;;;;;;5091236;28;20419;-48
2021/01/06 07:04:17;;;;;;;9.02;6.32;;;17.80;43.80;;;;;;5092332;28;20736;-53
2021/01/06 07:06:54;;;;;;;7.32;5.80;;;17.80;43.80;;;;;;5090013;28;20392;-53
2021/01/06 07:09:27;;;;;;;10.80;6.50;;;17.80;43.80;;;;;;5090791;28;20211;-50
2021/01/06 07:12:01;;;;;;;8.95;4.93;;;17.80;43.90;;;;;;5090558;28;20581;-52
2021/01/06 07:14:31;;;;;;;10.52;6.72;;;17.80;43.80;;;;;;5084866;28;20068;-53
2021/01/06 07:17:05;;;;;;;10.43;7.03;;;17.80;43.90;;;;;;5091332;28;20062;-53
2021/01/06 07:19:35;;;;;;;9.00;5.97;;;17.80;43.80;;;;;;5090812;28;20097;-48
2021/01/06 07:22:22;;;;;;;11.13;6.47;;;17.80;43.90;;;;;;5091642;28;20583;-48
2021/01/06 07:24:55;;;;;;;12.55;6.88;;;17.90;43.90;;;;;;5091087;28;20052;-47
2021/01/06 07:27:22;;;;;;;7.78;5.90;;;17.80;43.80;;;;;;5088816;28;20048;-50
2021/01/06 07:29:52;;;;;;;7.45;5.38;;;17.80;43.90;;;;;;5089044;28;20464;-50
2021/01/06 07:32:22;;;;;;;8.18;5.82;;;17.80;43.80;;;;;;5090654;28;20055;-47
2021/01/06 07:34:52;;;;;;;9.48;6.10;;;17.80;43.90;;;;;;5090881;28;20422;-51
2021/01/06 07:37:39;;;;;;;6.07;4.70;;;17.80;43.90;;;;;;5090683;28;20056;-50
2021/01/06 07:40:23;;;;;;;;;;;17.90;44.10;;;;;;5090663;28;20044;-49
2021/01/06 07:42:52;;;;;;;6.70;4.70;;;17.80;44.10;;;;;;5091214;28;19920;-54
2021/01/06 07:45:34;;;;;;;6.05;4.65;;;17.80;44.40;;;;;;5089176;28;20068;-51
2021/01/06 07:48:37;;;;;;;8.27;5.03;;;17.80;44.30;;;;;;5083595;28;20051;-51
2021/01/06 07:51:11;;;;;;;10.75;6.50;;;17.80;44.10;;;;;;5089020;28;20102;-50
2021/01/06 07:53:48;;;;;;;8.80;6.25;;;17.80;44.10;;;;;;5088959;28;20036;-49
2021/01/06 07:56:22;;;;;;;;;;;17.70;43.90;;;;;;5084066;28;20043;-47
2021/01/06 07:58:55;;;;;;;6.68;4.65;;;17.70;44.10;;;;;;5090268;28;19941;-51
2021/01/06 08:01:35;;;;;;;7.85;6.03;;;17.70;44.40;;;;;;5087104;28;20056;-54
2021/01/06 08:04:09;;;;;;;6.35;3.90;;;17.80;44.20;;;;;;5091212;28;20709;-47
2021/01/06 08:06:51;;;;;;;6.50;5.20;;;17.80;44.40;;;;;;5089542;28;20047;-48
2021/01/06 08:09:30;;;;;;;9.10;5.82;;;17.70;44.20;;;;;;5085754;28;20483;-53
2021/01/06 08:11:59;;;;;;;7.22;5.18;;;17.80;44.20;;;;;;5089505;28;20427;-54
2021/01/06 08:14:29;;;;;;;7.50;4.88;;;17.80;44.70;;;;;;5090053;28;20060;-55
2021/01/06 08:16:59;;;;;;;11.70;5.43;;;17.80;44.10;;;;;;5089702;28;20036;-52
2021/01/06 08:19:30;;;;;;;6.47;4.88;;;17.80;44.00;;;;;;5088416;28;20046;-54
2021/01/06 08:22:02;;;;;;;6.30;4.28;;;17.80;44.00;;;;;;5081478;28;20057;-51
2021/01/06 08:24:36;;;;;;;4.75;3.78;;;17.80;44.30;;;;;;5089876;28;20487;-51
2021/01/06 08:27:04;;;;;;;4.35;3.42;;;17.80;44.40;;;;;;5086443;28;20085;-52
2021/01/06 08:29:32;;;;;;;5.22;4.28;;;17.80;44.50;;;;;;5089501;28;20127;-48
2021/01/06 08:32:03;;;;;;;9.50;5.38;;;17.80;44.40;;;;;;5089395;28;20067;-53
2021/01/06 08:34:33;;;;;;;8.90;5.60;;;17.80;44.20;;;;;;5089801;28;20040;-47
2021/01/06 08:37:03;;;;;;;8.82;5.82;;;17.80;44.10;;;;;;5090501;28;20044;-49
2021/01/06 08:39:34;;;;;;;5.53;4.78;;;17.80;44.10;;;;;;5087872;28;20040;-50
2021/01/06 08:42:17;;;;;;;4.18;3.25;;;17.80;44.10;;;;;;5083067;28;20458;-53
2021/01/06 08:44:48;;;;;;;6.05;4.00;;;17.90;44.40;;;;;;5084684;28;20044;-53
2021/01/06 08:47:29;;;;;;;9.73;5.35;;;17.80;44.40;;;;;;5089362;28;20051;-48
2021/01/06 08:50:20;;;;;;;6.35;5.15;;;17.90;44.20;;;;;;5087329;28;20116;-52
2021/01/06 08:52:50;;;;;;;7.00;5.63;;;17.80;44.10;;;;;;5088057;28;20451;-54
2021/01/06 08:55:22;;;;;;;8.38;5.72;;;17.80;44.10;;;;;;5090638;28;20123;-50
2021/01/06 08:58:01;;;;;;;7.18;5.65;;;17.80;44.00;;;;;;5089536;28;20071;-50
2021/01/06 09:00:33;;;;;;;7.40;5.07;;;17.90;44.20;;;;;;5088619;28;20044;-51
2021/01/06 09:03:09;;;;;;;6.85;4.78;;;17.80;44.20;;;;;;5088544;28;20040;-48
2021/01/06 09:05:48;;;;;;;;;;;17.80;44.70;;;;;;5089205;28;20067;-49
2021/01/06 09:08:17;;;;;;;6.22;4.78;;;17.80;44.20;;;;;;5081301;28;19927;-49
2021/01/06 09:10:56;;;;;;;6.45;4.85;;;17.80;44.20;;;;;;5088444;28;21260;-52
2021/01/06 09:13:31;;;;;;;8.75;5.78;;;17.80;44.20;;;;;;5086183;28;20066;-55
2021/01/06 09:16:02;;;;;;;7.90;5.05;;;17.80;44.20;;;;;;5089002;28;20071;-50
2021/01/06 09:18:37;;;;;;;9.27;5.65;;;17.80;44.20;;;;;;5088314;28;20044;-53
2021/01/06 09:21:17;;;;;;;8.33;5.30;;;17.80;44.20;;;;;;5088559;28;20465;-54
2021/01/06 09:23:48;;;;;;;9.32;5.50;;;17.80;44.30;;;;;;5087675;28;20206;-49
2021/01/06 09:26:18;;;;;;;9.68;5.82;;;17.80;44.20;;;;;;5082295;28;20036;-51
2021/01/06 09:28:53;;;;;;;6.38;4.28;;;17.80;44.20;;;;;;5088176;28;20104;-50
2021/01/06 09:31:20;;;;;;;6.43;4.85;;;17.80;44.30;;;;;;5085987;28;20052;-52
2021/01/06 09:33:47;;;;;;;5.55;4.32;;;17.80;45.00;;;;;;5086968;28;20064;-47
2021/01/06 09:36:16;;;;;;;8.75;5.65;;;17.80;44.50;;;;;;5088624;28;20052;-47
2021/01/06 09:38:46;;;;;;;10.98;6.05;;;17.80;44.30;;;;;;5087858;28;20411;-47
2021/01/06 09:41:17;;;;;;;9.63;5.95;;;17.80;44.20;;;;;;5088170;28;20051;-47
2021/01/06 09:43:47;;;;;;;8.45;5.15;;;17.80;44.10;;;;;;5085115;28;20055;-49
2021/01/06 09:46:18;;;;;;;9.68;5.80;;;17.80;44.10;;;;;;5089173;28;20641;-49
2021/01/06 09:48:51;;;;;;;7.30;4.00;;;17.80;44.00;;;;;;5088012;28;20039;-48
2021/01/06 09:51:20;;;;;;;6.70;4.40;;;17.90;44.30;;;;;;5087713;28;20044;-47
2021/01/06 09:53:50;;;;;;;8.48;4.65;;;17.90;44.40;;;;;;5087217;28;20128;-48
2021/01/06 09:56:22;;;;;;;4.97;3.67;;;17.80;44.40;;;;;;5088170;28;20150;-51
2021/01/06 09:58:50;;;;;;;6.70;4.57;;;17.90;44.50;;;;;;5087742;28;20500;-47
2021/01/06 10:01:25;;;;;;;5.45;3.63;;;17.90;44.30;;;;;;5089376;28;20046;-50
2021/01/06 10:03:54;;;;;;;7.30;5.57;;;17.90;44.40;;;;;;5088563;28;20159;-47
2021/01/06 10:06:41;;;;;;;8.50;4.97;;;17.80;44.20;;;;;;5084059;28;20768;-49
2021/01/06 10:09:23;;;;;;;9.82;5.20;;;17.90;44.10;;;;;;5084105;28;20538;-51
2021/01/06 10:12:22;;;;;;;7.32;5.25;;;17.90;44.10;;;;;;5087024;28;20535;-49
2021/01/06 10:15:28;;;;;;;6.90;4.93;;;17.80;44.10;;;;;;5083911;28;20066;-52
2021/01/06 10:18:03;;;;;;;8.00;5.53;;;17.80;44.10;;;;;;5082108;28;20495;-50
2021/01/06 10:20:36;;;;;;;7.90;5.05;;;17.80;44.10;;;;;;5087469;28;20043;-51
2021/01/06 10:23:14;;;;;;;8.13;5.10;;;17.80;44.10;;;;;;5087359;28;20059;-52
2021/01/06 10:25:46;;;;;;;12.30;5.70;;;17.80;44.00;;;;;;5086605;28;20039;-51
2021/01/06 10:28:29;;;;;;;6.70;4.57;;;17.80;44.00;;;;;;5087953;28;20063;-49
2021/01/06 10:31:02;;;;;;;8.23;5.15;;;17.80;44.20;;;;;;5087916;28;20523;-53
2021/01/06 10:33:29;;;;;;;7.32;4.65;;;17.90;44.20;;;;;;5087658;28;20044;-53
2021/01/06 10:36:20;;;;;;;6.50;4.93;;;17.80;44.10;;;;;;5082544;28;20036;-51
2021/01/06 10:38:52;;;;;;;5.72;4.97;;;17.90;44.20;;;;;;5087607;28;20043;-53
2021/01/06 10:41:34;;;;;;;6.07;4.30;;;17.80;44.20;;;;;;5087237;28;20040;-51
2021/01/06 10:44:02;;;;;;;10.55;4.47;;;17.90;44.20;;;;;;5081394;28;20044;-48
2021/01/06 10:46:47;;;;;;;7.50;4.88;;;17.80;44.10;;;;;;5085085;28;20603;-53
2021/01/06 10:49:58;;;;;;;8.50;5.63;;;17.90;44.10;;;;;;5088263;28;20040;-51
2021/01/06 10:52:52;;;;;;;8.75;5.05;;;17.90;44.00;;;;;;5084213;28;20079;-48
2021/01/06 10:55:41;;;;;;;5.38;3.90;;;17.90;44.10;;;;;;5088856;28;20059;-54
2021/01/06 10:58:27;;;;;;;7.15;4.28;;;17.80;44.00;;;;;;5087489;28;20044;-52
2021/01/06 11:01:19;;;;;;;9.02;5.13;;;17.80;44.00;;;;;;5088403;28;20093;-56
2021/01/06 11:04:12;;;;;;;8.52;4.63;;;17.80;44.00;;;;;;5077990;28;20095;-51
2021/01/06 11:06:52;;;;;;;5.95;4.00;;;17.80;44.00;;;;;;5087268;28;20036;-53
2021/01/06 11:09:54;;;;;;;6.18;4.57;;;17.80;44.00;;;;;;5087193;28;20039;-52
2021/01/06 11:12:42;;;;;;;8.38;5.10;;;17.80;43.90;;;;;;5085166;28;20055;-51
2021/01/06 11:15:32;;;;;;;11.15;5.65;;;17.80;44.00;;;;;;5081843;28;20044;-51
2021/01/06 11:18:16;;;;;;;9.15;5.50;;;17.80;43.90;;;;;;5087471;28;20574;-51
2021/01/06 11:20:47;;;;;;;7.80;5.60;;;17.80;44.00;;;;;;5087086;28;20036;-54
2021/01/06 11:23:34;;;;;;;6.68;4.97;;;17.80;44.00;;;;;;5086975;28;20052;-53
2021/01/06 11:26:03;;;;;;;7.65;4.28;;;17.80;43.90;;;;;;5082625;28;20441;-54
2021/01/06 11:28:41;;;;;;;7.72;5.10;;;17.80;43.90;;;;;;5087798;28;20068;-53
2021/01/06 11:31:24;;;;;;;9.20;5.45;;;17.80;43.90;;;;;;5086892;28;20056;-52
2021/01/06 11:33:54;;;;;;;7.40;5.47;;;17.80;43.90;;;;;;5091237;28;20053;-52
2021/01/06 11:36:41;;;;;;;10.05;4.85;;;17.80;43.90;;;;;;5090440;28;20514;-48
2021/01/06 11:39:10;;;;;;;7.80;4.40;;;17.80;43.80;;;;;;5089639;28;20036;-48
2021/01/06 11:41:59;;;;;;;7.55;5.57;;;17.80;43.90;;;;;;5090328;28;20502;-49
2021/01/06 11:44:36;;;;;;;9.10;4.53;;;17.90;43.90;;;;;;5090424;28;20385;-48
2021/01/06 11:47:21;;;;;;;8.82;5.50;;;17.80;43.80;;;;;;5084111;28;20044;-53
2021/01/06 11:49:57;;;;;;;8.10;4.18;;;17.80;43.80;;;;;;5089485;28;20133;-51
2021/01/06 11:52:42;;;;;;;8.30;4.72;;;17.80;43.90;;;;;;5088634;28;20044;-53
2021/01/06 11:55:34;;;;;;;8.07;5.32;;;17.80;43.90;;;;;;5091174;28;20044;-50
2021/01/06 11:58:27;;;;;;;7.90;4.65;;;17.80;43.80;;;;;;5091071;28;20052;-48
2021/01/06 12:01:19;;;;;;;7.10;4.80;;;17.90;43.90;;;;;;5091104;28;20048;-47
2021/01/06 12:04:03;;;;;;;8.07;5.30;;;17.90;43.90;;;;;;5089487;28;20530;-49
2021/01/06 12:06:46;;;;;;;9.25;5.18;;;17.80;43.90;;;;;;5090018;28;20032;-50
2021/01/06 12:09:26;;;;;;;6.75;4.72;;;17.80;43.90;;;;;;5084304;28;20052;-51
2021/01/06 12:12:02;;;;;;;9.40;6.18;;;17.80;43.90;;;;;;5089985;28;20060;-51
2021/01/06 12:14:33;;;;;;;9.40;5.82;;;17.80;43.90;;;;;;5090305;28;20063;-53
2021/01/06 12:17:17;;;;;;;10.65;5.95;;;17.80;43.90;;;;;;5090172;28;20426;-46
2021/01/06 12:19:59;;;;;;;10.55;6.30;;;17.90;43.90;;;;;;5090226;28;20114;-51
2021/01/06 12:22:26;;;;;;;10.68;5.97;;;17.80;43.80;;;;;;5070320;28;20040;-52
2021/01/06 12:25:27;;;;;;;11.15;6.40;;;17.80;43.80;;;;;;5090685;28;20593;-50
2021/01/06 12:28:00;;;;;;;6.90;5.50;;;17.90;43.80;;;;;;5090496;28;20503;-51
2021/01/06 12:31:03;;;;;;;9.13;4.88;;;17.80;43.80;;;;;;5086533;28;20048;-49
2021/01/06 12:33:34;;;;;;;12.35;5.60;;;17.80;43.80;;;;;;5089510;28;20502;-47
2021/01/06 12:36:09;;;;;;;8.30;5.65;;;17.80;43.80;;;;;;5089746;28;20038;-54
2021/01/06 12:38:37;;;;;;;7.97;6.00;;;17.80;43.80;;;;;;5082270;28;20529;-49
2021/01/06 12:41:12;;;;;;;10.57;6.55;;;17.80;43.80;;;;;;5089866;28;20088;-47
2021/01/06 12:43:43;;;;;;;12.90;7.82;;;17.90;43.90;;;;;;5089558;28;20500;-50
2021/01/06 12:46:27;;;;;;;12.40;6.93;;;17.80;43.80;;;;;;5089679;28;20048;-53
2021/01/06 12:49:23;;;;;;;7.22;4.72;;;17.90;43.80;;;;;;5088816;28;20044;-55
2021/01/06 12:52:13;;;;;;;10.75;5.80;;;17.90;44.10;;;;;;5089445;28;20048;-51
2021/01/06 12:54:44;;;;;;;9.93;6.38;;;17.80;43.90;;;;;;5089079;28;20044;-55
2021/01/06 12:57:18;;;;;;;10.40;6.10;;;17.80;43.90;;;;;;5089138;28;20040;-47
2021/01/06 12:59:50;;;;;;;6.50;4.20;;;17.80;43.90;;;;;;5089055;28;20436;-47
2021/01/06 13:02:32;;;;;;;6.10;3.83;;;17.80;44.10;;;;;;5088973;28;20039;-51
2021/01/06 13:05:12;;;;;;;5.65;4.63;;;17.80;44.30;;;;;;5084210;28;20063;-47
2021/01/06 13:07:39;;;;;;;7.63;3.97;;;17.80;44.30;;;;;;5088420;28;20106;-53
2021/01/06 13:10:22;;;;;;;8.65;3.83;;;17.80;44.40;;;;;;5090289;28;20071;-47
2021/01/06 13:12:54;;;;;;;10.48;5.97;;;17.80;44.50;;;;;;5089033;28;20052;-47
2021/01/06 13:15:27;;;;;;;15.35;7.00;;;17.80;44.20;;;;;;5088783;28;20040;-53
2021/01/06 13:18:01;;;;;;;14.23;8.18;;;17.80;44.10;;;;;;5082618;28;20075;-52
2021/01/06 13:20:42;;;;;;;12.48;5.65;;;17.80;44.00;;;;;;5082798;28;20070;-50